sensor_id;sensor_type;location;lat;lon;timestamp;P1;durP1;ratioP1;P2;durP2;ratioP2
3949;SDS011;53057;50.988;6.314;2024-02-04T00:01:15;21.17;;;10.70;;
3949;SDS011;53057;50.988;6.314;2024-02-04T00:03:43;17.40;;;11.20;;
3949;SDS011;53057;50.988;6.314;2024-02-04T00:06:09;24.43;;;11.40;;
3949;SDS011;53057;50.988;6.314;2024-02-04T00:08:38;28.93;;;12.00;;
3949;SDS011;53057;50.988;6.314;2024-02-04T00:11:04;18.90;;;10.27;;
3949;SDS011;53057;50.988;6.314;2024-02-04T00:13:34;12.50;;;8.40;;
3949;SDS011;53057;50.988;6.314;2024-02-04T00:16:04;17.87;;;10.17;;
3949;SDS011;53057;50.988;6.314;2024-02-04T00:18:33;14.60;;;7.57;;
3949;SDS011;53057;50.988;6.314;2024-02-04T00:21:00;15.10;;;8.47;;
3949;SDS011;53057;50.988;6.314;2024-02-04T00:23:27;15.43;;;7.10;;
3949;SDS011;53057;50.988;6.314;2024-02-04T00:25:54;18.57;;;9.30;;
3949;SDS011;53057;50.988;6.314;2024-02-04T00:28:20;18.43;;;8.57;;
3949;SDS011;53057;50.988;6.314;2024-02-04T00:30:47;9.97;;;6.87;;
3949;SDS011;53057;50.988;6.314;2024-02-04T00:33:16;14.00;;;8.10;;
3949;SDS011;53057;50.988;6.314;2024-02-04T00:35:43;15.07;;;8.60;;
3949;SDS011;53057;50.988;6.314;2024-02-04T00:38:09;9.80;;;6.50;;
3949;SDS011;53057;50.988;6.314;2024-02-04T00:40:36;12.87;;;7.20;;
3949;SDS011;53057;50.988;6.314;2024-02-04T00:43:04;9.20;;;6.30;;
3949;SDS011;53057;50.988;6.314;2024-02-04T00:45:33;11.30;;;6.57;;
3949;SDS011;53057;50.988;6.314;2024-02-04T00:48:01;11.63;;;5.70;;
3949;SDS011;53057;50.988;6.314;2024-02-04T00:50:30;9.73;;;5.70;;
3949;SDS011;53057;50.988;6.314;2024-02-04T00:52:58;10.90;;;5.93;;
3949;SDS011;53057;50.988;6.314;2024-02-04T00:55:26;11.93;;;6.33;;
3949;SDS011;53057;50.988;6.314;2024-02-04T00:57:54;9.07;;;5.40;;
3949;SDS011;53057;50.988;6.314;2024-02-04T01:00:22;9.33;;;5.70;;
3949;SDS011;53057;50.988;6.314;2024-02-04T01:02:50;7.20;;;4.30;;
3949;SDS011;53057;50.988;6.314;2024-02-04T01:05:18;6.77;;;4.43;;
3949;SDS011;53057;50.988;6.314;2024-02-04T01:07:46;9.23;;;5.70;;
3949;SDS011;53057;50.988;6.314;2024-02-04T01:10:14;12.90;;;4.30;;
3949;SDS011;53057;50.988;6.314;2024-02-04T01:12:41;8.63;;;5.27;;
3949;SDS011;53057;50.988;6.314;2024-02-04T01:15:09;10.73;;;5.57;;
3949;SDS011;53057;50.988;6.314;2024-02-04T01:17:37;6.00;;;5.10;;
3949;SDS011;53057;50.988;6.314;2024-02-04T01:20:05;7.30;;;5.17;;
3949;SDS011;53057;50.988;6.314;2024-02-04T01:22:33;7.47;;;4.83;;
3949;SDS011;53057;50.988;6.314;2024-02-04T01:25:00;6.30;;;4.70;;
3949;SDS011;53057;50.988;6.314;2024-02-04T01:27:27;6.97;;;4.60;;
3949;SDS011;53057;50.988;6.314;2024-02-04T01:29:55;7.20;;;4.20;;
3949;SDS011;53057;50.988;6.314;2024-02-04T01:32:23;8.83;;;4.97;;
3949;SDS011;53057;50.988;6.314;2024-02-04T01:34:51;6.77;;;4.70;;
3949;SDS011;53057;50.988;6.314;2024-02-04T01:37:19;8.30;;;4.60;;
3949;SDS011;53057;50.988;6.314;2024-02-04T01:39:47;6.60;;;5.00;;
3949;SDS011;53057;50.988;6.314;2024-02-04T01:42:15;12.20;;;6.20;;
3949;SDS011;53057;50.988;6.314;2024-02-04T01:44:42;15.60;;;4.67;;
3949;SDS011;53057;50.988;6.314;2024-02-04T01:47:09;8.93;;;5.33;;
3949;SDS011;53057;50.988;6.314;2024-02-04T01:49:37;9.47;;;7.00;;
3949;SDS011;53057;50.988;6.314;2024-02-04T01:52:05;12.13;;;6.67;;
3949;SDS011;53057;50.988;6.314;2024-02-04T01:54:33;9.60;;;5.77;;
3949;SDS011;53057;50.988;6.314;2024-02-04T01:57:01;10.70;;;6.60;;
3949;SDS011;53057;50.988;6.314;2024-02-04T01:59:29;10.60;;;5.73;;
3949;SDS011;53057;50.988;6.314;2024-02-04T02:02:00;6.90;;;4.37;;
3949;SDS011;53057;50.988;6.314;2024-02-04T02:04:30;11.60;;;6.60;;
3949;SDS011;53057;50.988;6.314;2024-02-04T02:06:58;8.70;;;6.57;;
3949;SDS011;53057;50.988;6.314;2024-02-04T02:09:29;8.60;;;5.80;;
3949;SDS011;53057;50.988;6.314;2024-02-04T02:11:59;7.57;;;5.37;;
3949;SDS011;53057;50.988;6.314;2024-02-04T02:14:28;8.90;;;5.77;;
3949;SDS011;53057;50.988;6.314;2024-02-04T02:16:57;7.80;;;5.83;;
3949;SDS011;53057;50.988;6.314;2024-02-04T02:19:31;8.10;;;5.57;;
3949;SDS011;53057;50.988;6.314;2024-02-04T02:22:02;8.40;;;6.63;;
3949;SDS011;53057;50.988;6.314;2024-02-04T02:24:38;6.87;;;5.40;;
3949;SDS011;53057;50.988;6.314;2024-02-04T02:27:07;11.37;;;7.57;;
3949;SDS011;53057;50.988;6.314;2024-02-04T02:29:34;8.90;;;6.60;;
3949;SDS011;53057;50.988;6.314;2024-02-04T02:32:02;12.10;;;6.93;;
3949;SDS011;53057;50.988;6.314;2024-02-04T02:34:32;10.40;;;6.23;;
3949;SDS011;53057;50.988;6.314;2024-02-04T02:39:48;16.70;;;7.97;;
3949;SDS011;53057;50.988;6.314;2024-02-04T02:42:17;7.90;;;5.57;;
3949;SDS011;53057;50.988;6.314;2024-02-04T02:44:46;10.07;;;6.37;;
3949;SDS011;53057;50.988;6.314;2024-02-04T02:47:14;9.93;;;7.30;;
3949;SDS011;53057;50.988;6.314;2024-02-04T02:49:42;10.67;;;7.43;;
3949;SDS011;53057;50.988;6.314;2024-02-04T02:52:09;10.27;;;7.37;;
3949;SDS011;53057;50.988;6.314;2024-02-04T02:54:36;9.67;;;6.27;;
3949;SDS011;53057;50.988;6.314;2024-02-04T02:57:03;9.50;;;6.07;;
3949;SDS011;53057;50.988;6.314;2024-02-04T02:59:30;12.40;;;8.63;;
3949;SDS011;53057;50.988;6.314;2024-02-04T03:01:58;9.93;;;7.23;;
3949;SDS011;53057;50.988;6.314;2024-02-04T03:04:26;10.00;;;7.00;;
3949;SDS011;53057;50.988;6.314;2024-02-04T03:06:54;10.50;;;6.87;;
3949;SDS011;53057;50.988;6.314;2024-02-04T03:09:20;7.70;;;4.53;;
3949;SDS011;53057;50.988;6.314;2024-02-04T03:11:47;10.43;;;7.00;;
3949;SDS011;53057;50.988;6.314;2024-02-04T03:14:15;10.97;;;6.37;;
3949;SDS011;53057;50.988;6.314;2024-02-04T03:16:43;10.33;;;7.20;;
3949;SDS011;53057;50.988;6.314;2024-02-04T03:19:11;12.90;;;7.50;;
3949;SDS011;53057;50.988;6.314;2024-02-04T03:21:39;10.80;;;6.73;;
3949;SDS011;53057;50.988;6.314;2024-02-04T03:24:07;12.23;;;7.00;;
3949;SDS011;53057;50.988;6.314;2024-02-04T03:26:35;9.37;;;6.53;;
3949;SDS011;53057;50.988;6.314;2024-02-04T03:29:02;11.17;;;6.57;;
3949;SDS011;53057;50.988;6.314;2024-02-04T03:31:32;11.10;;;6.67;;
3949;SDS011;53057;50.988;6.314;2024-02-04T03:33:59;10.33;;;6.50;;
3949;SDS011;53057;50.988;6.314;2024-02-04T03:36:27;9.93;;;5.53;;
3949;SDS011;53057;50.988;6.314;2024-02-04T03:38:55;10.00;;;5.17;;
3949;SDS011;53057;50.988;6.314;2024-02-04T03:41:23;8.50;;;6.57;;
3949;SDS011;53057;50.988;6.314;2024-02-04T03:43:50;8.97;;;5.57;;
3949;SDS011;53057;50.988;6.314;2024-02-04T03:46:18;8.50;;;5.73;;
3949;SDS011;53057;50.988;6.314;2024-02-04T03:48:45;5.37;;;4.03;;
3949;SDS011;53057;50.988;6.314;2024-02-04T03:51:16;6.77;;;4.83;;
3949;SDS011;53057;50.988;6.314;2024-02-04T03:53:45;8.50;;;5.80;;
3949;SDS011;53057;50.988;6.314;2024-02-04T03:56:12;6.40;;;4.80;;
3949;SDS011;53057;50.988;6.314;2024-02-04T03:58:39;6.97;;;5.13;;
3949;SDS011;53057;50.988;6.314;2024-02-04T04:01:10;8.53;;;4.97;;
3949;SDS011;53057;50.988;6.314;2024-02-04T04:03:39;9.73;;;6.20;;
3949;SDS011;53057;50.988;6.314;2024-02-04T04:06:07;8.67;;;6.10;;
3949;SDS011;53057;50.988;6.314;2024-02-04T04:08:37;11.57;;;6.73;;
3949;SDS011;53057;50.988;6.314;2024-02-04T04:11:04;8.67;;;6.37;;
3949;SDS011;53057;50.988;6.314;2024-02-04T04:13:31;11.50;;;8.00;;
3949;SDS011;53057;50.988;6.314;2024-02-04T04:16:03;15.33;;;8.00;;
3949;SDS011;53057;50.988;6.314;2024-02-04T04:18:30;12.67;;;8.10;;
3949;SDS011;53057;50.988;6.314;2024-02-04T04:20:58;14.30;;;8.93;;
3949;SDS011;53057;50.988;6.314;2024-02-04T04:23:26;15.90;;;8.13;;
3949;SDS011;53057;50.988;6.314;2024-02-04T04:25:54;13.87;;;7.57;;
3949;SDS011;53057;50.988;6.314;2024-02-04T04:28:21;17.33;;;9.93;;
3949;SDS011;53057;50.988;6.314;2024-02-04T04:30:48;12.73;;;9.00;;
3949;SDS011;53057;50.988;6.314;2024-02-04T04:33:16;15.77;;;9.90;;
3949;SDS011;53057;50.988;6.314;2024-02-04T04:35:44;18.20;;;9.10;;
3949;SDS011;53057;50.988;6.314;2024-02-04T04:38:11;14.43;;;9.90;;
3949;SDS011;53057;50.988;6.314;2024-02-04T04:40:39;13.40;;;9.27;;
3949;SDS011;53057;50.988;6.314;2024-02-04T04:43:07;18.23;;;11.03;;
3949;SDS011;53057;50.988;6.314;2024-02-04T04:45:34;16.93;;;9.23;;
3949;SDS011;53057;50.988;6.314;2024-02-04T04:48:01;18.20;;;9.50;;
3949;SDS011;53057;50.988;6.314;2024-02-04T04:50:28;18.90;;;8.60;;
3949;SDS011;53057;50.988;6.314;2024-02-04T04:52:55;17.00;;;10.43;;
3949;SDS011;53057;50.988;6.314;2024-02-04T04:55:23;20.13;;;11.47;;
3949;SDS011;53057;50.988;6.314;2024-02-04T04:57:49;21.23;;;10.13;;
3949;SDS011;53057;50.988;6.314;2024-02-04T05:00:18;19.83;;;11.57;;
3949;SDS011;53057;50.988;6.314;2024-02-04T05:02:46;19.33;;;10.50;;
3949;SDS011;53057;50.988;6.314;2024-02-04T05:05:14;13.10;;;8.47;;
3949;SDS011;53057;50.988;6.314;2024-02-04T05:07:41;15.73;;;10.00;;
3949;SDS011;53057;50.988;6.314;2024-02-04T05:10:09;16.67;;;8.53;;
3949;SDS011;53057;50.988;6.314;2024-02-04T05:12:35;10.70;;;6.73;;
3949;SDS011;53057;50.988;6.314;2024-02-04T05:15:04;19.03;;;11.77;;
3949;SDS011;53057;50.988;6.314;2024-02-04T05:17:31;15.17;;;10.43;;
3949;SDS011;53057;50.988;6.314;2024-02-04T05:19:59;14.60;;;9.53;;
3949;SDS011;53057;50.988;6.314;2024-02-04T05:22:27;17.83;;;10.97;;
3949;SDS011;53057;50.988;6.314;2024-02-04T05:24:53;17.23;;;11.23;;
3949;SDS011;53057;50.988;6.314;2024-02-04T05:27:21;15.73;;;10.07;;
3949;SDS011;53057;50.988;6.314;2024-02-04T05:29:48;17.40;;;10.63;;
3949;SDS011;53057;50.988;6.314;2024-02-04T05:32:15;20.80;;;10.97;;
3949;SDS011;53057;50.988;6.314;2024-02-04T05:34:42;27.63;;;13.10;;
3949;SDS011;53057;50.988;6.314;2024-02-04T05:37:10;21.37;;;12.50;;
3949;SDS011;53057;50.988;6.314;2024-02-04T05:39:38;23.50;;;12.50;;
3949;SDS011;53057;50.988;6.314;2024-02-04T05:42:05;25.93;;;13.90;;
3949;SDS011;53057;50.988;6.314;2024-02-04T05:44:33;21.37;;;12.40;;
3949;SDS011;53057;50.988;6.314;2024-02-04T05:47:01;24.50;;;14.10;;
3949;SDS011;53057;50.988;6.314;2024-02-04T05:49:28;17.97;;;13.40;;
3949;SDS011;53057;50.988;6.314;2024-02-04T05:51:56;17.40;;;11.23;;
3949;SDS011;53057;50.988;6.314;2024-02-04T05:54:23;16.90;;;11.90;;
3949;SDS011;53057;50.988;6.314;2024-02-04T05:56:50;17.53;;;10.63;;
3949;SDS011;53057;50.988;6.314;2024-02-04T05:59:16;15.73;;;10.60;;
3949;SDS011;53057;50.988;6.314;2024-02-04T06:01:44;15.10;;;10.60;;
3949;SDS011;53057;50.988;6.314;2024-02-04T06:04:12;12.47;;;8.50;;
3949;SDS011;53057;50.988;6.314;2024-02-04T06:06:40;15.13;;;8.20;;
3949;SDS011;53057;50.988;6.314;2024-02-04T06:09:07;8.77;;;6.93;;
3949;SDS011;53057;50.988;6.314;2024-02-04T06:11:35;11.13;;;7.03;;
3949;SDS011;53057;50.988;6.314;2024-02-04T06:14:02;10.93;;;6.30;;
3949;SDS011;53057;50.988;6.314;2024-02-04T06:16:30;11.50;;;7.23;;
3949;SDS011;53057;50.988;6.314;2024-02-04T06:18:57;9.27;;;5.47;;
3949;SDS011;53057;50.988;6.314;2024-02-04T06:21:25;10.17;;;4.60;;
3949;SDS011;53057;50.988;6.314;2024-02-04T06:23:53;11.33;;;6.23;;
3949;SDS011;53057;50.988;6.314;2024-02-04T06:26:21;10.30;;;6.23;;
3949;SDS011;53057;50.988;6.314;2024-02-04T06:28:48;8.23;;;4.90;;
3949;SDS011;53057;50.988;6.314;2024-02-04T06:31:21;10.30;;;6.03;;
3949;SDS011;53057;50.988;6.314;2024-02-04T06:33:52;7.43;;;4.30;;
3949;SDS011;53057;50.988;6.314;2024-02-04T06:36:33;10.77;;;4.93;;
3949;SDS011;53057;50.988;6.314;2024-02-04T06:39:03;7.37;;;4.30;;
3949;SDS011;53057;50.988;6.314;2024-02-04T06:41:31;8.60;;;4.50;;
3949;SDS011;53057;50.988;6.314;2024-02-04T06:44:07;7.47;;;4.83;;
3949;SDS011;53057;50.988;6.314;2024-02-04T06:46:41;7.03;;;3.63;;
3949;SDS011;53057;50.988;6.314;2024-02-04T06:49:09;8.60;;;4.63;;
3949;SDS011;53057;50.988;6.314;2024-02-04T06:51:36;6.20;;;3.47;;
3949;SDS011;53057;50.988;6.314;2024-02-04T06:54:04;7.40;;;3.53;;
3949;SDS011;53057;50.988;6.314;2024-02-04T06:56:31;3.67;;;2.60;;
3949;SDS011;53057;50.988;6.314;2024-02-04T06:58:59;4.70;;;3.30;;
3949;SDS011;53057;50.988;6.314;2024-02-04T07:01:27;3.70;;;2.60;;
3949;SDS011;53057;50.988;6.314;2024-02-04T07:03:55;3.17;;;2.00;;
3949;SDS011;53057;50.988;6.314;2024-02-04T07:06:24;5.90;;;2.67;;
3949;SDS011;53057;50.988;6.314;2024-02-04T07:08:51;2.20;;;1.70;;
3949;SDS011;53057;50.988;6.314;2024-02-04T07:11:18;2.50;;;1.90;;
3949;SDS011;53057;50.988;6.314;2024-02-04T07:13:45;3.30;;;1.50;;
3949;SDS011;53057;50.988;6.314;2024-02-04T07:16:12;1.87;;;1.57;;
3949;SDS011;53057;50.988;6.314;2024-02-04T07:18:40;3.73;;;2.07;;
3949;SDS011;53057;50.988;6.314;2024-02-04T07:21:07;2.80;;;1.43;;
3949;SDS011;53057;50.988;6.314;2024-02-04T07:23:34;1.67;;;1.33;;
3949;SDS011;53057;50.988;6.314;2024-02-04T07:26:04;2.70;;;1.93;;
3949;SDS011;53057;50.988;6.314;2024-02-04T07:28:32;3.03;;;1.93;;
3949;SDS011;53057;50.988;6.314;2024-02-04T07:31:00;2.20;;;1.00;;
3949;SDS011;53057;50.988;6.314;2024-02-04T07:33:28;3.43;;;2.13;;
3949;SDS011;53057;50.988;6.314;2024-02-04T07:35:59;3.80;;;2.33;;
3949;SDS011;53057;50.988;6.314;2024-02-04T07:38:26;7.27;;;2.43;;
3949;SDS011;53057;50.988;6.314;2024-02-04T07:40:53;5.40;;;3.20;;
3949;SDS011;53057;50.988;6.314;2024-02-04T07:43:22;5.00;;;3.37;;
3949;SDS011;53057;50.988;6.314;2024-02-04T07:45:49;3.53;;;2.83;;
3949;SDS011;53057;50.988;6.314;2024-02-04T07:48:16;6.30;;;3.87;;
3949;SDS011;53057;50.988;6.314;2024-02-04T07:50:43;9.33;;;3.50;;
3949;SDS011;53057;50.988;6.314;2024-02-04T07:53:10;5.27;;;3.73;;
3949;SDS011;53057;50.988;6.314;2024-02-04T07:55:38;5.70;;;4.30;;
3949;SDS011;53057;50.988;6.314;2024-02-04T07:58:05;9.07;;;6.23;;
3949;SDS011;53057;50.988;6.314;2024-02-04T08:00:40;7.23;;;4.90;;
3949;SDS011;53057;50.988;6.314;2024-02-04T08:03:07;7.20;;;5.57;;
3949;SDS011;53057;50.988;6.314;2024-02-04T08:08:52;11.03;;;6.53;;
3949;SDS011;53057;50.988;6.314;2024-02-04T08:11:20;15.13;;;6.00;;
3949;SDS011;53057;50.988;6.314;2024-02-04T08:13:48;10.20;;;6.80;;
3949;SDS011;53057;50.988;6.314;2024-02-04T08:16:15;10.23;;;5.33;;
3949;SDS011;53057;50.988;6.314;2024-02-04T08:18:42;10.00;;;4.40;;
3949;SDS011;53057;50.988;6.314;2024-02-04T08:21:09;8.47;;;4.53;;
3949;SDS011;53057;50.988;6.314;2024-02-04T08:23:36;7.33;;;4.90;;
3949;SDS011;53057;50.988;6.314;2024-02-04T08:26:03;8.40;;;4.77;;
3949;SDS011;53057;50.988;6.314;2024-02-04T08:28:30;9.03;;;5.03;;
3949;SDS011;53057;50.988;6.314;2024-02-04T08:30:57;7.67;;;5.10;;
3949;SDS011;53057;50.988;6.314;2024-02-04T08:33:24;5.00;;;3.70;;
3949;SDS011;53057;50.988;6.314;2024-02-04T08:35:52;7.77;;;3.53;;
3949;SDS011;53057;50.988;6.314;2024-02-04T08:38:19;6.37;;;3.97;;
3949;SDS011;53057;50.988;6.314;2024-02-04T08:40:46;7.50;;;3.27;;
3949;SDS011;53057;50.988;6.314;2024-02-04T08:43:14;4.00;;;2.80;;
3949;SDS011;53057;50.988;6.314;2024-02-04T08:45:41;5.77;;;2.93;;
3949;SDS011;53057;50.988;6.314;2024-02-04T08:48:09;2.20;;;1.33;;
3949;SDS011;53057;50.988;6.314;2024-02-04T08:50:36;4.00;;;2.10;;
3949;SDS011;53057;50.988;6.314;2024-02-04T08:53:03;1.63;;;1.50;;
3949;SDS011;53057;50.988;6.314;2024-02-04T08:55:30;2.13;;;1.73;;
3949;SDS011;53057;50.988;6.314;2024-02-04T08:57:57;4.03;;;1.67;;
3949;SDS011;53057;50.988;6.314;2024-02-04T09:00:24;2.93;;;2.50;;
3949;SDS011;53057;50.988;6.314;2024-02-04T09:02:51;6.37;;;2.37;;
3949;SDS011;53057;50.988;6.314;2024-02-04T09:05:19;4.07;;;2.30;;
3949;SDS011;53057;50.988;6.314;2024-02-04T09:07:47;8.60;;;2.13;;
3949;SDS011;53057;50.988;6.314;2024-02-04T09:10:14;3.20;;;2.10;;
3949;SDS011;53057;50.988;6.314;2024-02-04T09:12:41;18.13;;;2.50;;
3949;SDS011;53057;50.988;6.314;2024-02-04T09:15:08;3.70;;;2.10;;
3949;SDS011;53057;50.988;6.314;2024-02-04T09:17:35;3.17;;;2.50;;
3949;SDS011;53057;50.988;6.314;2024-02-04T09:20:02;5.63;;;2.97;;
3949;SDS011;53057;50.988;6.314;2024-02-04T09:22:31;6.70;;;3.30;;
3949;SDS011;53057;50.988;6.314;2024-02-04T09:24:58;7.00;;;3.73;;
3949;SDS011;53057;50.988;6.314;2024-02-04T09:27:26;6.33;;;4.90;;
3949;SDS011;53057;50.988;6.314;2024-02-04T09:29:53;7.17;;;4.30;;
3949;SDS011;53057;50.988;6.314;2024-02-04T09:32:22;6.23;;;3.90;;
3949;SDS011;53057;50.988;6.314;2024-02-04T09:34:49;6.63;;;4.43;;
3949;SDS011;53057;50.988;6.314;2024-02-04T09:37:16;5.80;;;4.53;;
3949;SDS011;53057;50.988;6.314;2024-02-04T09:39:44;5.17;;;3.77;;
3949;SDS011;53057;50.988;6.314;2024-02-04T09:42:13;8.40;;;5.00;;
3949;SDS011;53057;50.988;6.314;2024-02-04T09:44:42;5.50;;;4.03;;
3949;SDS011;53057;50.988;6.314;2024-02-04T09:47:09;11.30;;;4.43;;
3949;SDS011;53057;50.988;6.314;2024-02-04T09:49:38;7.53;;;5.20;;
3949;SDS011;53057;50.988;6.314;2024-02-04T09:52:09;7.33;;;5.00;;
3949;SDS011;53057;50.988;6.314;2024-02-04T09:54:38;12.17;;;6.90;;
3949;SDS011;53057;50.988;6.314;2024-02-04T09:57:09;7.80;;;5.03;;
3949;SDS011;53057;50.988;6.314;2024-02-04T09:59:37;10.23;;;5.87;;
3949;SDS011;53057;50.988;6.314;2024-02-04T10:02:03;13.37;;;7.27;;
3949;SDS011;53057;50.988;6.314;2024-02-04T10:04:31;8.27;;;6.43;;
3949;SDS011;53057;50.988;6.314;2024-02-04T10:06:59;11.87;;;6.80;;
3949;SDS011;53057;50.988;6.314;2024-02-04T10:09:26;13.50;;;5.73;;
3949;SDS011;53057;50.988;6.314;2024-02-04T10:11:53;12.10;;;7.17;;
3949;SDS011;53057;50.988;6.314;2024-02-04T10:14:20;15.43;;;6.83;;
3949;SDS011;53057;50.988;6.314;2024-02-04T10:16:48;10.13;;;5.53;;
3949;SDS011;53057;50.988;6.314;2024-02-04T10:19:16;10.57;;;6.40;;
3949;SDS011;53057;50.988;6.314;2024-02-04T10:21:44;7.53;;;5.47;;
3949;SDS011;53057;50.988;6.314;2024-02-04T10:24:12;6.40;;;4.43;;
3949;SDS011;53057;50.988;6.314;2024-02-04T10:26:39;5.83;;;4.47;;
3949;SDS011;53057;50.988;6.314;2024-02-04T10:29:10;7.10;;;4.23;;
3949;SDS011;53057;50.988;6.314;2024-02-04T10:31:39;6.30;;;4.30;;
3949;SDS011;53057;50.988;6.314;2024-02-04T10:34:06;6.50;;;4.10;;
3949;SDS011;53057;50.988;6.314;2024-02-04T10:36:33;5.07;;;3.80;;
3949;SDS011;53057;50.988;6.314;2024-02-04T10:39:01;3.87;;;3.47;;
3949;SDS011;53057;50.988;6.314;2024-02-04T10:41:28;5.00;;;3.80;;
3949;SDS011;53057;50.988;6.314;2024-02-04T10:43:56;4.23;;;2.40;;
3949;SDS011;53057;50.988;6.314;2024-02-04T10:46:24;9.13;;;4.27;;
3949;SDS011;53057;50.988;6.314;2024-02-04T10:48:57;5.70;;;4.10;;
3949;SDS011;53057;50.988;6.314;2024-02-04T10:51:25;6.67;;;5.00;;
3949;SDS011;53057;50.988;6.314;2024-02-04T10:53:55;10.80;;;4.90;;
3949;SDS011;53057;50.988;6.314;2024-02-04T10:56:29;6.07;;;4.80;;
3949;SDS011;53057;50.988;6.314;2024-02-04T10:58:57;5.97;;;4.83;;
3949;SDS011;53057;50.988;6.314;2024-02-04T11:01:27;4.77;;;3.90;;
3949;SDS011;53057;50.988;6.314;2024-02-04T11:03:54;7.17;;;4.43;;
3949;SDS011;53057;50.988;6.314;2024-02-04T11:06:22;9.23;;;5.20;;
3949;SDS011;53057;50.988;6.314;2024-02-04T11:08:50;6.67;;;4.90;;
3949;SDS011;53057;50.988;6.314;2024-02-04T11:11:22;10.83;;;5.20;;
3949;SDS011;53057;50.988;6.314;2024-02-04T11:13:51;9.43;;;5.63;;
3949;SDS011;53057;50.988;6.314;2024-02-04T11:27:03;12.83;;;6.70;;
3949;SDS011;53057;50.988;6.314;2024-02-04T11:29:30;13.17;;;6.97;;
3949;SDS011;53057;50.988;6.314;2024-02-04T11:31:58;16.10;;;7.70;;
3949;SDS011;53057;50.988;6.314;2024-02-04T11:34:26;10.60;;;6.37;;
3949;SDS011;53057;50.988;6.314;2024-02-04T11:36:53;8.30;;;5.63;;
3949;SDS011;53057;50.988;6.314;2024-02-04T11:39:21;7.77;;;5.27;;
3949;SDS011;53057;50.988;6.314;2024-02-04T11:41:49;3.33;;;3.03;;
3949;SDS011;53057;50.988;6.314;2024-02-04T11:44:24;9.10;;;4.80;;
3949;SDS011;53057;50.988;6.314;2024-02-04T11:46:51;7.60;;;4.73;;
3949;SDS011;53057;50.988;6.314;2024-02-04T11:49:19;9.50;;;4.23;;
3949;SDS011;53057;50.988;6.314;2024-02-04T11:51:46;5.27;;;4.60;;
3949;SDS011;53057;50.988;6.314;2024-02-04T11:54:15;3.70;;;3.40;;
3949;SDS011;53057;50.988;6.314;2024-02-04T11:56:43;9.57;;;4.57;;
3949;SDS011;53057;50.988;6.314;2024-02-04T11:59:10;5.63;;;3.90;;
3949;SDS011;53057;50.988;6.314;2024-02-04T12:01:38;8.33;;;3.73;;
3949;SDS011;53057;50.988;6.314;2024-02-04T12:04:10;7.20;;;3.90;;
3949;SDS011;53057;50.988;6.314;2024-02-04T12:06:38;6.27;;;4.00;;
3949;SDS011;53057;50.988;6.314;2024-02-04T12:09:07;13.03;;;4.10;;
3949;SDS011;53057;50.988;6.314;2024-02-04T12:11:51;5.83;;;4.00;;
3949;SDS011;53057;50.988;6.314;2024-02-04T12:14:19;6.93;;;4.23;;
3949;SDS011;53057;50.988;6.314;2024-02-04T12:16:47;8.40;;;4.30;;
3949;SDS011;53057;50.988;6.314;2024-02-04T12:19:14;12.60;;;4.60;;
3949;SDS011;53057;50.988;6.314;2024-02-04T12:21:41;6.47;;;4.60;;
3949;SDS011;53057;50.988;6.314;2024-02-04T12:24:10;5.97;;;3.93;;
3949;SDS011;53057;50.988;6.314;2024-02-04T12:26:39;5.60;;;4.07;;
3949;SDS011;53057;50.988;6.314;2024-02-04T12:29:07;7.73;;;5.00;;
3949;SDS011;53057;50.988;6.314;2024-02-04T12:31:37;7.20;;;5.10;;
3949;SDS011;53057;50.988;6.314;2024-02-04T12:34:08;8.57;;;5.90;;
3949;SDS011;53057;50.988;6.314;2024-02-04T12:36:36;8.70;;;5.00;;
3949;SDS011;53057;50.988;6.314;2024-02-04T12:39:04;10.53;;;5.40;;
3949;SDS011;53057;50.988;6.314;2024-02-04T12:41:35;10.20;;;7.03;;
3949;SDS011;53057;50.988;6.314;2024-02-04T12:44:03;8.20;;;5.10;;
3949;SDS011;53057;50.988;6.314;2024-02-04T12:46:33;7.40;;;5.87;;
3949;SDS011;53057;50.988;6.314;2024-02-04T12:49:01;8.33;;;4.50;;
3949;SDS011;53057;50.988;6.314;2024-02-04T12:51:33;7.00;;;5.10;;
3949;SDS011;53057;50.988;6.314;2024-02-04T12:54:06;10.23;;;7.17;;
3949;SDS011;53057;50.988;6.314;2024-02-04T12:56:46;8.47;;;7.40;;
3949;SDS011;53057;50.988;6.314;2024-02-04T12:59:26;7.07;;;4.77;;
3949;SDS011;53057;50.988;6.314;2024-02-04T13:01:57;7.30;;;4.30;;
3949;SDS011;53057;50.988;6.314;2024-02-04T13:04:25;10.10;;;6.40;;
3949;SDS011;53057;50.988;6.314;2024-02-04T13:06:54;10.83;;;5.70;;
3949;SDS011;53057;50.988;6.314;2024-02-04T13:09:21;7.53;;;5.20;;
3949;SDS011;53057;50.988;6.314;2024-02-04T13:11:50;5.50;;;4.37;;
3949;SDS011;53057;50.988;6.314;2024-02-04T13:14:17;7.70;;;5.20;;
3949;SDS011;53057;50.988;6.314;2024-02-04T13:16:45;7.27;;;5.23;;
3949;SDS011;53057;50.988;6.314;2024-02-04T13:19:12;11.03;;;5.30;;
3949;SDS011;53057;50.988;6.314;2024-02-04T13:21:39;6.53;;;4.87;;
3949;SDS011;53057;50.988;6.314;2024-02-04T13:24:06;7.60;;;5.27;;
3949;SDS011;53057;50.988;6.314;2024-02-04T13:26:33;3.20;;;2.87;;
3949;SDS011;53057;50.988;6.314;2024-02-04T13:29:00;3.40;;;3.07;;
3949;SDS011;53057;50.988;6.314;2024-02-04T13:31:27;7.87;;;4.27;;
3949;SDS011;53057;50.988;6.314;2024-02-04T13:33:55;3.30;;;3.00;;
3949;SDS011;53057;50.988;6.314;2024-02-04T13:36:23;4.23;;;3.83;;
3949;SDS011;53057;50.988;6.314;2024-02-04T13:38:50;3.37;;;3.00;;
3949;SDS011;53057;50.988;6.314;2024-02-04T13:41:17;4.50;;;3.57;;
3949;SDS011;53057;50.988;6.314;2024-02-04T13:43:45;7.20;;;3.83;;
3949;SDS011;53057;50.988;6.314;2024-02-04T13:46:12;5.50;;;3.90;;
3949;SDS011;53057;50.988;6.314;2024-02-04T13:48:39;5.60;;;3.07;;
3949;SDS011;53057;50.988;6.314;2024-02-04T13:51:07;6.27;;;3.33;;
3949;SDS011;53057;50.988;6.314;2024-02-04T13:53:34;7.27;;;3.20;;
3949;SDS011;53057;50.988;6.314;2024-02-04T13:56:02;2.73;;;2.40;;
3949;SDS011;53057;50.988;6.314;2024-02-04T13:58:30;4.73;;;4.07;;
3949;SDS011;53057;50.988;6.314;2024-02-04T14:00:57;3.60;;;3.13;;
3949;SDS011;53057;50.988;6.314;2024-02-04T14:03:26;5.50;;;3.20;;
3949;SDS011;53057;50.988;6.314;2024-02-04T14:05:53;3.00;;;2.70;;
3949;SDS011;53057;50.988;6.314;2024-02-04T14:08:22;6.70;;;3.57;;
3949;SDS011;53057;50.988;6.314;2024-02-04T14:10:49;4.50;;;3.60;;
3949;SDS011;53057;50.988;6.314;2024-02-04T14:13:17;5.87;;;3.20;;
3949;SDS011;53057;50.988;6.314;2024-02-04T14:15:49;3.00;;;2.53;;
3949;SDS011;53057;50.988;6.314;2024-02-04T14:18:17;3.47;;;2.90;;
3949;SDS011;53057;50.988;6.314;2024-02-04T14:20:44;3.40;;;3.20;;
3949;SDS011;53057;50.988;6.314;2024-02-04T14:23:11;4.27;;;3.40;;
3949;SDS011;53057;50.988;6.314;2024-02-04T14:25:38;3.87;;;3.47;;
3949;SDS011;53057;50.988;6.314;2024-02-04T14:28:06;7.60;;;3.30;;
3949;SDS011;53057;50.988;6.314;2024-02-04T14:30:33;3.90;;;3.43;;
3949;SDS011;53057;50.988;6.314;2024-02-04T14:33:00;3.40;;;3.10;;
3949;SDS011;53057;50.988;6.314;2024-02-04T14:35:27;4.93;;;3.70;;
3949;SDS011;53057;50.988;6.314;2024-02-04T14:37:54;3.70;;;3.40;;
3949;SDS011;53057;50.988;6.314;2024-02-04T14:40:21;3.67;;;3.10;;
3949;SDS011;53057;50.988;6.314;2024-02-04T14:42:49;4.07;;;3.13;;
3949;SDS011;53057;50.988;6.314;2024-02-04T14:45:16;6.10;;;5.30;;
3949;SDS011;53057;50.988;6.314;2024-02-04T14:47:44;6.43;;;5.73;;
3949;SDS011;53057;50.988;6.314;2024-02-04T14:50:11;4.90;;;4.50;;
3949;SDS011;53057;50.988;6.314;2024-02-04T14:52:40;4.67;;;4.27;;
3949;SDS011;53057;50.988;6.314;2024-02-04T14:55:07;4.67;;;4.27;;
3949;SDS011;53057;50.988;6.314;2024-02-04T14:57:37;5.33;;;4.83;;
3949;SDS011;53057;50.988;6.314;2024-02-04T15:00:04;4.43;;;3.97;;
3949;SDS011;53057;50.988;6.314;2024-02-04T15:02:31;3.80;;;3.47;;
3949;SDS011;53057;50.988;6.314;2024-02-04T15:04:58;8.00;;;3.33;;
3949;SDS011;53057;50.988;6.314;2024-02-04T15:07:26;5.47;;;3.40;;
3949;SDS011;53057;50.988;6.314;2024-02-04T15:09:53;4.20;;;3.80;;
3949;SDS011;53057;50.988;6.314;2024-02-04T15:12:20;8.73;;;3.77;;
3949;SDS011;53057;50.988;6.314;2024-02-04T15:14:48;5.17;;;3.07;;
3949;SDS011;53057;50.988;6.314;2024-02-04T15:17:15;4.97;;;3.57;;